sensor_id;sensor_type;location;lat;lon;timestamp;P1;durP1;ratioP1;P2;durP2;ratioP2
10275;SDS011;5183;51.190;6.820;2023-03-12T00:00:51;11.07;;;7.60;;
10275;SDS011;5183;51.190;6.820;2023-03-12T00:03:18;10.07;;;7.03;;
10275;SDS011;5183;51.190;6.820;2023-03-12T00:05:45;9.57;;;7.00;;
10275;SDS011;5183;51.190;6.820;2023-03-12T00:08:12;10.87;;;7.23;;
10275;SDS011;5183;51.190;6.820;2023-03-12T00:10:40;10.23;;;7.27;;
10275;SDS011;5183;51.190;6.820;2023-03-12T00:13:07;10.50;;;7.30;;
10275;SDS011;5183;51.190;6.820;2023-03-12T00:15:35;8.03;;;6.37;;
10275;SDS011;5183;51.190;6.820;2023-03-12T00:18:02;9.80;;;6.50;;
10275;SDS011;5183;51.190;6.820;2023-03-12T00:20:29;8.00;;;6.50;;
10275;SDS011;5183;51.190;6.820;2023-03-12T00:22:56;9.00;;;6.37;;
10275;SDS011;5183;51.190;6.820;2023-03-12T00:25:23;10.50;;;6.50;;
10275;SDS011;5183;51.190;6.820;2023-03-12T00:27:51;10.03;;;6.50;;
10275;SDS011;5183;51.190;6.820;2023-03-12T00:30:18;8.23;;;6.10;;
10275;SDS011;5183;51.190;6.820;2023-03-12T00:32:45;10.30;;;5.70;;
10275;SDS011;5183;51.190;6.820;2023-03-12T00:35:12;8.33;;;6.23;;
10275;SDS011;5183;51.190;6.820;2023-03-12T00:37:39;7.47;;;6.00;;
10275;SDS011;5183;51.190;6.820;2023-03-12T00:40:06;9.07;;;5.93;;
10275;SDS011;5183;51.190;6.820;2023-03-12T00:42:35;9.33;;;5.77;;
10275;SDS011;5183;51.190;6.820;2023-03-12T00:45:03;11.53;;;5.93;;
10275;SDS011;5183;51.190;6.820;2023-03-12T00:47:31;7.87;;;5.50;;
10275;SDS011;5183;51.190;6.820;2023-03-12T00:49:57;11.27;;;5.57;;
10275;SDS011;5183;51.190;6.820;2023-03-12T00:52:24;9.97;;;5.77;;
10275;SDS011;5183;51.190;6.820;2023-03-12T00:54:51;7.93;;;5.17;;
10275;SDS011;5183;51.190;6.820;2023-03-12T00:57:22;7.50;;;5.30;;
10275;SDS011;5183;51.190;6.820;2023-03-12T00:59:49;7.50;;;5.17;;
10275;SDS011;5183;51.190;6.820;2023-03-12T01:02:17;7.70;;;5.50;;
10275;SDS011;5183;51.190;6.820;2023-03-12T01:04:44;6.80;;;4.97;;
10275;SDS011;5183;51.190;6.820;2023-03-12T01:07:10;10.70;;;5.27;;
10275;SDS011;5183;51.190;6.820;2023-03-12T01:09:37;7.37;;;4.90;;
10275;SDS011;5183;51.190;6.820;2023-03-12T01:12:05;8.53;;;5.43;;
10275;SDS011;5183;51.190;6.820;2023-03-12T01:14:32;10.07;;;5.30;;
10275;SDS011;5183;51.190;6.820;2023-03-12T01:16:59;9.40;;;5.40;;
10275;SDS011;5183;51.190;6.820;2023-03-12T01:19:27;7.00;;;4.93;;
10275;SDS011;5183;51.190;6.820;2023-03-12T01:21:53;7.87;;;5.00;;
10275;SDS011;5183;51.190;6.820;2023-03-12T01:24:20;7.77;;;5.33;;
10275;SDS011;5183;51.190;6.820;2023-03-12T01:26:47;6.03;;;4.97;;
10275;SDS011;5183;51.190;6.820;2023-03-12T01:29:14;7.97;;;5.10;;
10275;SDS011;5183;51.190;6.820;2023-03-12T01:31:41;13.10;;;5.70;;
10275;SDS011;5183;51.190;6.820;2023-03-12T01:34:08;8.87;;;5.87;;
10275;SDS011;5183;51.190;6.820;2023-03-12T01:36:37;7.87;;;5.27;;
10275;SDS011;5183;51.190;6.820;2023-03-12T01:39:03;9.83;;;5.60;;
10275;SDS011;5183;51.190;6.820;2023-03-12T01:41:31;8.03;;;5.30;;
10275;SDS011;5183;51.190;6.820;2023-03-12T01:43:58;10.53;;;5.13;;
10275;SDS011;5183;51.190;6.820;2023-03-12T01:46:28;10.23;;;5.53;;
10275;SDS011;5183;51.190;6.820;2023-03-12T01:48:58;9.07;;;5.20;;
10275;SDS011;5183;51.190;6.820;2023-03-12T01:51:29;6.93;;;5.23;;
10275;SDS011;5183;51.190;6.820;2023-03-12T01:54:01;10.87;;;6.03;;
10275;SDS011;5183;51.190;6.820;2023-03-12T01:56:31;7.57;;;5.60;;
10275;SDS011;5183;51.190;6.820;2023-03-12T01:59:02;7.87;;;5.63;;
10275;SDS011;5183;51.190;6.820;2023-03-12T02:01:35;7.63;;;4.73;;
10275;SDS011;5183;51.190;6.820;2023-03-12T02:04:03;9.33;;;5.90;;
10275;SDS011;5183;51.190;6.820;2023-03-12T02:06:32;8.80;;;5.30;;
10275;SDS011;5183;51.190;6.820;2023-03-12T02:09:04;6.40;;;5.50;;
10275;SDS011;5183;51.190;6.820;2023-03-12T02:11:32;8.80;;;5.50;;
10275;SDS011;5183;51.190;6.820;2023-03-12T02:13:59;6.97;;;5.20;;
10275;SDS011;5183;51.190;6.820;2023-03-12T02:16:26;9.20;;;5.20;;
10275;SDS011;5183;51.190;6.820;2023-03-12T02:18:53;6.87;;;5.20;;
10275;SDS011;5183;51.190;6.820;2023-03-12T02:21:22;6.70;;;4.97;;
10275;SDS011;5183;51.190;6.820;2023-03-12T02:23:54;8.07;;;5.57;;
10275;SDS011;5183;51.190;6.820;2023-03-12T02:26:26;6.07;;;5.20;;
10275;SDS011;5183;51.190;6.820;2023-03-12T02:28:55;9.67;;;5.60;;
10275;SDS011;5183;51.190;6.820;2023-03-12T02:31:25;7.00;;;5.27;;
10275;SDS011;5183;51.190;6.820;2023-03-12T02:33:56;9.27;;;5.20;;
10275;SDS011;5183;51.190;6.820;2023-03-12T02:36:24;10.87;;;5.57;;
10275;SDS011;5183;51.190;6.820;2023-03-12T02:38:51;11.20;;;5.63;;
10275;SDS011;5183;51.190;6.820;2023-03-12T02:41:19;9.10;;;5.60;;
10275;SDS011;5183;51.190;6.820;2023-03-12T02:43:50;8.80;;;5.53;;
10275;SDS011;5183;51.190;6.820;2023-03-12T02:46:22;7.63;;;5.23;;
10275;SDS011;5183;51.190;6.820;2023-03-12T02:48:48;11.37;;;5.60;;
10275;SDS011;5183;51.190;6.820;2023-03-12T02:51:16;8.17;;;5.43;;
10275;SDS011;5183;51.190;6.820;2023-03-12T02:53:43;10.30;;;5.37;;
10275;SDS011;5183;51.190;6.820;2023-03-12T02:56:10;9.73;;;5.43;;
10275;SDS011;5183;51.190;6.820;2023-03-12T02:58:37;10.30;;;5.30;;
10275;SDS011;5183;51.190;6.820;2023-03-12T03:01:05;9.87;;;5.07;;
10275;SDS011;5183;51.190;6.820;2023-03-12T03:03:32;10.30;;;5.90;;
10275;SDS011;5183;51.190;6.820;2023-03-12T03:05:59;9.73;;;5.03;;
10275;SDS011;5183;51.190;6.820;2023-03-12T03:08:26;7.20;;;5.10;;
10275;SDS011;5183;51.190;6.820;2023-03-12T03:10:52;9.47;;;5.03;;
10275;SDS011;5183;51.190;6.820;2023-03-12T03:13:19;7.57;;;5.17;;
10275;SDS011;5183;51.190;6.820;2023-03-12T03:15:46;8.00;;;4.80;;
10275;SDS011;5183;51.190;6.820;2023-03-12T03:18:14;6.40;;;5.07;;
10275;SDS011;5183;51.190;6.820;2023-03-12T03:20:41;6.90;;;4.60;;
10275;SDS011;5183;51.190;6.820;2023-03-12T03:23:09;13.37;;;5.10;;
10275;SDS011;5183;51.190;6.820;2023-03-12T03:25:35;8.00;;;4.40;;
10275;SDS011;5183;51.190;6.820;2023-03-12T03:28:02;6.27;;;4.67;;
10275;SDS011;5183;51.190;6.820;2023-03-12T03:30:29;9.70;;;5.00;;
10275;SDS011;5183;51.190;6.820;2023-03-12T03:32:56;5.77;;;4.70;;
10275;SDS011;5183;51.190;6.820;2023-03-12T03:35:25;7.90;;;4.70;;
10275;SDS011;5183;51.190;6.820;2023-03-12T03:37:51;9.93;;;5.13;;
10275;SDS011;5183;51.190;6.820;2023-03-12T03:40:18;7.13;;;4.20;;
10275;SDS011;5183;51.190;6.820;2023-03-12T03:42:45;7.67;;;4.10;;
10275;SDS011;5183;51.190;6.820;2023-03-12T03:45:12;7.00;;;4.47;;
10275;SDS011;5183;51.190;6.820;2023-03-12T03:47:39;8.70;;;4.33;;
10275;SDS011;5183;51.190;6.820;2023-03-12T03:50:06;5.73;;;4.30;;
10275;SDS011;5183;51.190;6.820;2023-03-12T03:52:34;7.23;;;4.23;;
10275;SDS011;5183;51.190;6.820;2023-03-12T03:55:01;8.53;;;4.87;;
10275;SDS011;5183;51.190;6.820;2023-03-12T03:57:28;6.60;;;4.13;;
10275;SDS011;5183;51.190;6.820;2023-03-12T03:59:55;6.93;;;4.30;;
10275;SDS011;5183;51.190;6.820;2023-03-12T04:02:24;6.67;;;3.80;;
10275;SDS011;5183;51.190;6.820;2023-03-12T04:04:52;4.73;;;3.77;;
10275;SDS011;5183;51.190;6.820;2023-03-12T04:07:22;6.30;;;4.30;;
10275;SDS011;5183;51.190;6.820;2023-03-12T04:09:50;9.73;;;4.37;;
10275;SDS011;5183;51.190;6.820;2023-03-12T04:12:17;5.63;;;3.90;;
10275;SDS011;5183;51.190;6.820;2023-03-12T04:14:43;6.87;;;4.53;;
10275;SDS011;5183;51.190;6.820;2023-03-12T04:17:10;7.53;;;4.00;;
10275;SDS011;5183;51.190;6.820;2023-03-12T04:19:37;7.47;;;4.07;;
10275;SDS011;5183;51.190;6.820;2023-03-12T04:22:04;7.13;;;3.97;;
10275;SDS011;5183;51.190;6.820;2023-03-12T04:24:31;5.40;;;4.10;;
10275;SDS011;5183;51.190;6.820;2023-03-12T04:26:59;7.40;;;4.30;;
10275;SDS011;5183;51.190;6.820;2023-03-12T04:29:26;6.40;;;4.07;;
10275;SDS011;5183;51.190;6.820;2023-03-12T04:31:53;7.93;;;4.40;;
10275;SDS011;5183;51.190;6.820;2023-03-12T04:34:20;6.53;;;3.87;;
10275;SDS011;5183;51.190;6.820;2023-03-12T04:36:47;7.07;;;3.80;;
10275;SDS011;5183;51.190;6.820;2023-03-12T04:39:15;6.70;;;3.90;;
10275;SDS011;5183;51.190;6.820;2023-03-12T04:41:43;5.83;;;3.80;;
10275;SDS011;5183;51.190;6.820;2023-03-12T04:44:11;7.30;;;4.03;;
10275;SDS011;5183;51.190;6.820;2023-03-12T04:46:38;6.07;;;3.77;;
10275;SDS011;5183;51.190;6.820;2023-03-12T04:49:05;7.97;;;4.10;;
10275;SDS011;5183;51.190;6.820;2023-03-12T04:51:32;8.10;;;4.20;;
10275;SDS011;5183;51.190;6.820;2023-03-12T04:53:59;9.80;;;4.33;;
10275;SDS011;5183;51.190;6.820;2023-03-12T04:56:26;6.80;;;3.77;;
10275;SDS011;5183;51.190;6.820;2023-03-12T04:58:53;5.73;;;3.70;;
10275;SDS011;5183;51.190;6.820;2023-03-12T05:01:22;5.23;;;3.80;;
10275;SDS011;5183;51.190;6.820;2023-03-12T05:03:51;6.27;;;3.77;;
10275;SDS011;5183;51.190;6.820;2023-03-12T05:06:19;6.00;;;3.63;;
10275;SDS011;5183;51.190;6.820;2023-03-12T05:08:46;8.13;;;4.40;;
10275;SDS011;5183;51.190;6.820;2023-03-12T05:11:13;5.43;;;4.00;;
10275;SDS011;5183;51.190;6.820;2023-03-12T05:13:41;9.97;;;4.00;;
10275;SDS011;5183;51.190;6.820;2023-03-12T05:16:08;7.43;;;3.47;;
10275;SDS011;5183;51.190;6.820;2023-03-12T05:18:37;7.77;;;3.93;;
10275;SDS011;5183;51.190;6.820;2023-03-12T05:21:05;7.13;;;4.13;;
10275;SDS011;5183;51.190;6.820;2023-03-12T05:23:34;6.53;;;4.30;;
10275;SDS011;5183;51.190;6.820;2023-03-12T05:26:03;6.07;;;3.87;;
10275;SDS011;5183;51.190;6.820;2023-03-12T05:28:31;6.37;;;4.30;;
10275;SDS011;5183;51.190;6.820;2023-03-12T05:30:58;8.40;;;4.57;;
10275;SDS011;5183;51.190;6.820;2023-03-12T05:33:26;6.20;;;4.70;;
10275;SDS011;5183;51.190;6.820;2023-03-12T05:35:55;5.00;;;4.20;;
10275;SDS011;5183;51.190;6.820;2023-03-12T05:38:22;5.27;;;4.27;;
10275;SDS011;5183;51.190;6.820;2023-03-12T05:40:52;6.70;;;4.37;;
10275;SDS011;5183;51.190;6.820;2023-03-12T05:43:20;7.10;;;4.10;;
10275;SDS011;5183;51.190;6.820;2023-03-12T05:45:48;7.03;;;4.40;;
10275;SDS011;5183;51.190;6.820;2023-03-12T05:48:14;10.50;;;4.40;;
10275;SDS011;5183;51.190;6.820;2023-03-12T05:50:41;7.73;;;4.40;;
10275;SDS011;5183;51.190;6.820;2023-03-12T05:53:10;7.33;;;3.97;;
10275;SDS011;5183;51.190;6.820;2023-03-12T05:55:37;8.13;;;4.33;;
10275;SDS011;5183;51.190;6.820;2023-03-12T05:58:05;8.23;;;4.20;;
10275;SDS011;5183;51.190;6.820;2023-03-12T06:00:33;8.67;;;4.13;;
10275;SDS011;5183;51.190;6.820;2023-03-12T06:03:02;7.47;;;4.30;;
10275;SDS011;5183;51.190;6.820;2023-03-12T06:05:29;5.53;;;3.90;;
10275;SDS011;5183;51.190;6.820;2023-03-12T06:07:56;5.60;;;3.80;;
10275;SDS011;5183;51.190;6.820;2023-03-12T06:10:24;7.40;;;4.37;;
10275;SDS011;5183;51.190;6.820;2023-03-12T06:12:51;8.00;;;4.87;;
10275;SDS011;5183;51.190;6.820;2023-03-12T06:15:18;6.63;;;4.83;;
10275;SDS011;5183;51.190;6.820;2023-03-12T06:17:45;8.10;;;4.80;;
10275;SDS011;5183;51.190;6.820;2023-03-12T06:20:11;8.03;;;5.03;;
10275;SDS011;5183;51.190;6.820;2023-03-12T06:22:38;8.43;;;4.90;;
10275;SDS011;5183;51.190;6.820;2023-03-12T06:25:06;9.20;;;5.23;;
10275;SDS011;5183;51.190;6.820;2023-03-12T06:27:34;9.57;;;5.73;;
10275;SDS011;5183;51.190;6.820;2023-03-12T06:30:01;9.67;;;6.47;;
10275;SDS011;5183;51.190;6.820;2023-03-12T06:32:28;7.93;;;5.80;;
10275;SDS011;5183;51.190;6.820;2023-03-12T06:34:55;9.77;;;6.17;;
10275;SDS011;5183;51.190;6.820;2023-03-12T06:37:24;7.63;;;5.70;;
10275;SDS011;5183;51.190;6.820;2023-03-12T06:39:51;9.23;;;6.40;;
10275;SDS011;5183;51.190;6.820;2023-03-12T06:42:18;11.53;;;5.80;;
10275;SDS011;5183;51.190;6.820;2023-03-12T06:44:47;16.73;;;9.90;;
10275;SDS011;5183;51.190;6.820;2023-03-12T06:47:15;11.67;;;6.20;;
10275;SDS011;5183;51.190;6.820;2023-03-12T06:49:41;10.27;;;5.93;;
10275;SDS011;5183;51.190;6.820;2023-03-12T06:52:08;11.87;;;6.07;;
10275;SDS011;5183;51.190;6.820;2023-03-12T06:54:35;8.43;;;5.73;;
10275;SDS011;5183;51.190;6.820;2023-03-12T06:57:02;11.30;;;6.03;;
10275;SDS011;5183;51.190;6.820;2023-03-12T06:59:29;7.83;;;5.53;;
10275;SDS011;5183;51.190;6.820;2023-03-12T07:01:57;9.57;;;5.90;;
10275;SDS011;5183;51.190;6.820;2023-03-12T07:04:24;11.20;;;5.20;;
10275;SDS011;5183;51.190;6.820;2023-03-12T07:06:51;9.00;;;5.37;;
10275;SDS011;5183;51.190;6.820;2023-03-12T07:09:18;10.43;;;5.40;;
10275;SDS011;5183;51.190;6.820;2023-03-12T07:11:45;6.87;;;5.13;;
10275;SDS011;5183;51.190;6.820;2023-03-12T07:14:12;11.10;;;5.67;;
10275;SDS011;5183;51.190;6.820;2023-03-12T07:16:39;10.70;;;5.83;;
10275;SDS011;5183;51.190;6.820;2023-03-12T07:19:07;8.37;;;5.20;;
10275;SDS011;5183;51.190;6.820;2023-03-12T07:21:34;8.13;;;5.83;;
10275;SDS011;5183;51.190;6.820;2023-03-12T07:24:00;8.10;;;5.47;;
10275;SDS011;5183;51.190;6.820;2023-03-12T07:26:31;7.50;;;5.23;;
10275;SDS011;5183;51.190;6.820;2023-03-12T07:28:59;7.63;;;5.13;;
10275;SDS011;5183;51.190;6.820;2023-03-12T07:31:25;9.50;;;5.20;;
10275;SDS011;5183;51.190;6.820;2023-03-12T07:33:52;8.53;;;5.40;;
10275;SDS011;5183;51.190;6.820;2023-03-12T07:36:20;8.77;;;4.87;;
10275;SDS011;5183;51.190;6.820;2023-03-12T07:38:48;8.87;;;5.07;;
10275;SDS011;5183;51.190;6.820;2023-03-12T07:41:14;8.43;;;4.90;;
10275;SDS011;5183;51.190;6.820;2023-03-12T07:43:41;10.47;;;4.60;;
10275;SDS011;5183;51.190;6.820;2023-03-12T07:46:08;9.40;;;5.00;;
10275;SDS011;5183;51.190;6.820;2023-03-12T07:48:35;6.97;;;4.93;;
10275;SDS011;5183;51.190;6.820;2023-03-12T07:51:02;7.93;;;4.80;;
10275;SDS011;5183;51.190;6.820;2023-03-12T07:53:31;7.53;;;5.00;;
10275;SDS011;5183;51.190;6.820;2023-03-12T07:55:58;10.60;;;5.50;;
10275;SDS011;5183;51.190;6.820;2023-03-12T07:58:25;9.23;;;5.15;;
10275;SDS011;5183;51.190;6.820;2023-03-12T08:00:53;11.17;;;5.03;;
10275;SDS011;5183;51.190;6.820;2023-03-12T08:03:20;9.20;;;4.77;;
10275;SDS011;5183;51.190;6.820;2023-03-12T08:05:54;8.53;;;4.93;;
10275;SDS011;5183;51.190;6.820;2023-03-12T08:08:22;8.27;;;5.07;;
10275;SDS011;5183;51.190;6.820;2023-03-12T08:10:50;7.17;;;4.60;;
10275;SDS011;5183;51.190;6.820;2023-03-12T08:13:17;10.27;;;5.17;;
10275;SDS011;5183;51.190;6.820;2023-03-12T08:15:44;5.73;;;4.83;;
10275;SDS011;5183;51.190;6.820;2023-03-12T08:18:11;9.33;;;6.93;;
10275;SDS011;5183;51.190;6.820;2023-03-12T08:20:38;7.23;;;4.80;;
10275;SDS011;5183;51.190;6.820;2023-03-12T08:23:04;11.17;;;5.07;;
10275;SDS011;5183;51.190;6.820;2023-03-12T08:25:31;9.90;;;5.00;;
10275;SDS011;5183;51.190;6.820;2023-03-12T08:27:59;7.47;;;5.20;;
10275;SDS011;5183;51.190;6.820;2023-03-12T08:30:26;7.60;;;5.40;;
10275;SDS011;5183;51.190;6.820;2023-03-12T08:32:53;9.07;;;5.53;;
10275;SDS011;5183;51.190;6.820;2023-03-12T08:35:20;9.40;;;6.40;;
10275;SDS011;5183;51.190;6.820;2023-03-12T08:37:47;11.30;;;5.63;;
10275;SDS011;5183;51.190;6.820;2023-03-12T08:40:14;10.23;;;5.80;;
10275;SDS011;5183;51.190;6.820;2023-03-12T08:42:41;9.43;;;5.60;;
10275;SDS011;5183;51.190;6.820;2023-03-12T08:45:11;11.43;;;6.30;;
10275;SDS011;5183;51.190;6.820;2023-03-12T08:47:40;10.23;;;6.30;;
10275;SDS011;5183;51.190;6.820;2023-03-12T08:50:08;7.30;;;6.60;;
10275;SDS011;5183;51.190;6.820;2023-03-12T08:52:36;9.23;;;7.00;;
10275;SDS011;5183;51.190;6.820;2023-03-12T08:55:04;12.70;;;7.30;;
10275;SDS011;5183;51.190;6.820;2023-03-12T08:57:31;10.17;;;6.93;;
10275;SDS011;5183;51.190;6.820;2023-03-12T08:59:58;11.37;;;9.47;;
10275;SDS011;5183;51.190;6.820;2023-03-12T09:02:26;11.83;;;7.53;;
10275;SDS011;5183;51.190;6.820;2023-03-12T09:04:53;10.40;;;7.67;;
10275;SDS011;5183;51.190;6.820;2023-03-12T09:07:20;10.17;;;7.47;;
10275;SDS011;5183;51.190;6.820;2023-03-12T09:09:47;14.57;;;9.30;;
10275;SDS011;5183;51.190;6.820;2023-03-12T09:12:14;13.87;;;8.17;;
10275;SDS011;5183;51.190;6.820;2023-03-12T09:14:41;10.50;;;8.00;;
10275;SDS011;5183;51.190;6.820;2023-03-12T09:17:07;13.77;;;8.90;;
10275;SDS011;5183;51.190;6.820;2023-03-12T09:19:36;11.97;;;8.30;;
10275;SDS011;5183;51.190;6.820;2023-03-12T09:22:02;10.37;;;8.50;;
10275;SDS011;5183;51.190;6.820;2023-03-12T09:24:29;10.10;;;9.00;;
10275;SDS011;5183;51.190;6.820;2023-03-12T09:26:56;12.50;;;9.10;;
10275;SDS011;5183;51.190;6.820;2023-03-12T09:29:23;13.47;;;10.17;;
10275;SDS011;5183;51.190;6.820;2023-03-12T09:31:50;11.70;;;9.60;;
10275;SDS011;5183;51.190;6.820;2023-03-12T09:34:16;12.37;;;10.30;;
10275;SDS011;5183;51.190;6.820;2023-03-12T09:36:45;12.97;;;10.57;;
10275;SDS011;5183;51.190;6.820;2023-03-12T09:39:11;13.17;;;11.10;;
10275;SDS011;5183;51.190;6.820;2023-03-12T09:41:39;13.53;;;11.27;;
10275;SDS011;5183;51.190;6.820;2023-03-12T09:44:09;14.47;;;11.20;;
10275;SDS011;5183;51.190;6.820;2023-03-12T09:46:42;15.00;;;12.20;;
10275;SDS011;5183;51.190;6.820;2023-03-12T09:49:14;14.40;;;11.97;;
10275;SDS011;5183;51.190;6.820;2023-03-12T09:51:46;17.57;;;12.10;;
10275;SDS011;5183;51.190;6.820;2023-03-12T09:54:20;14.53;;;11.83;;
10275;SDS011;5183;51.190;6.820;2023-03-12T09:56:52;15.73;;;12.33;;
10275;SDS011;5183;51.190;6.820;2023-03-12T09:59:23;15.20;;;12.40;;
10275;SDS011;5183;51.190;6.820;2023-03-12T10:01:50;18.00;;;13.13;;
10275;SDS011;5183;51.190;6.820;2023-03-12T10:04:28;16.07;;;12.97;;
10275;SDS011;5183;51.190;6.820;2023-03-12T10:07:06;14.40;;;12.57;;
10275;SDS011;5183;51.190;6.820;2023-03-12T10:09:38;15.77;;;13.07;;
10275;SDS011;5183;51.190;6.820;2023-03-12T10:12:21;15.57;;;13.97;;
10275;SDS011;5183;51.190;6.820;2023-03-12T10:14:55;17.40;;;13.70;;
10275;SDS011;5183;51.190;6.820;2023-03-12T10:17:42;16.37;;;13.70;;
10275;SDS011;5183;51.190;6.820;2023-03-12T10:23:21;15.77;;;13.53;;
10275;SDS011;5183;51.190;6.820;2023-03-12T10:25:57;15.77;;;14.13;;
10275;SDS011;5183;51.190;6.820;2023-03-12T10:28:30;17.13;;;15.33;;
10275;SDS011;5183;51.190;6.820;2023-03-12T10:31:02;22.90;;;18.73;;
10275;SDS011;5183;51.190;6.820;2023-03-12T10:33:35;19.47;;;17.37;;
10275;SDS011;5183;51.190;6.820;2023-03-12T10:36:14;21.13;;;17.70;;
10275;SDS011;5183;51.190;6.820;2023-03-12T10:38:45;22.80;;;19.10;;
10275;SDS011;5183;51.190;6.820;2023-03-12T10:41:14;19.53;;;17.43;;
10275;SDS011;5183;51.190;6.820;2023-03-12T10:43:42;20.20;;;18.10;;
10275;SDS011;5183;51.190;6.820;2023-03-12T10:46:15;22.33;;;18.97;;
10275;SDS011;5183;51.190;6.820;2023-03-12T10:51:53;22.97;;;19.17;;
10275;SDS011;5183;51.190;6.820;2023-03-12T10:54:26;19.77;;;17.67;;
10275;SDS011;5183;51.190;6.820;2023-03-12T10:56:54;20.93;;;18.73;;
10275;SDS011;5183;51.190;6.820;2023-03-12T10:59:24;21.70;;;19.47;;
10275;SDS011;5183;51.190;6.820;2023-03-12T11:01:53;21.40;;;19.10;;
10275;SDS011;5183;51.190;6.820;2023-03-12T11:04:22;20.33;;;18.33;;
10275;SDS011;5183;51.190;6.820;2023-03-12T11:07:04;20.93;;;18.83;;
10275;SDS011;5183;51.190;6.820;2023-03-12T11:09:42;21.13;;;18.93;;
10275;SDS011;5183;51.190;6.820;2023-03-12T11:12:22;21.00;;;18.90;;
10275;SDS011;5183;51.190;6.820;2023-03-12T11:14:51;20.63;;;18.53;;
10275;SDS011;5183;51.190;6.820;2023-03-12T11:17:19;20.17;;;18.07;;
10275;SDS011;5183;51.190;6.820;2023-03-12T11:19:47;19.43;;;17.43;;
10275;SDS011;5183;51.190;6.820;2023-03-12T11:22:13;19.60;;;17.63;;
10275;SDS011;5183;51.190;6.820;2023-03-12T11:24:56;18.27;;;16.37;;
10275;SDS011;5183;51.190;6.820;2023-03-12T11:27:26;21.17;;;18.97;;
10275;SDS011;5183;51.190;6.820;2023-03-12T11:30:03;21.20;;;18.03;;
10275;SDS011;5183;51.190;6.820;2023-03-12T11:32:32;20.50;;;18.40;;
10275;SDS011;5183;51.190;6.820;2023-03-12T11:35:02;21.70;;;19.47;;
10275;SDS011;5183;51.190;6.820;2023-03-12T11:37:36;21.70;;;19.40;;
10275;SDS011;5183;51.190;6.820;2023-03-12T11:40:16;22.90;;;20.03;;
10275;SDS011;5183;51.190;6.820;2023-03-12T11:42:57;21.60;;;19.40;;
10275;SDS011;5183;51.190;6.820;2023-03-12T11:45:38;22.17;;;19.67;;
10275;SDS011;5183;51.190;6.820;2023-03-12T11:48:15;22.07;;;19.70;;
10275;SDS011;5183;51.190;6.820;2023-03-12T11:50:50;22.53;;;20.23;;
10275;SDS011;5183;51.190;6.820;2023-03-12T11:53:28;24.67;;;22.27;;
10275;SDS011;5183;51.190;6.820;2023-03-12T11:56:12;25.65;;;23.27;;
10275;SDS011;5183;51.190;6.820;2023-03-12T11:58:51;22.83;;;20.43;;
10275;SDS011;5183;51.190;6.820;2023-03-12T12:01:25;22.70;;;20.27;;
10275;SDS011;5183;51.190;6.820;2023-03-12T12:04:11;21.20;;;19.00;;
10275;SDS011;5183;51.190;6.820;2023-03-12T12:07:14;23.13;;;20.63;;
10275;SDS011;5183;51.190;6.820;2023-03-12T12:09:49;25.20;;;21.83;;
10275;SDS011;5183;51.190;6.820;2023-03-12T12:12:36;24.47;;;21.83;;
10275;SDS011;5183;51.190;6.820;2023-03-12T12:15:14;24.75;;;22.15;;
10275;SDS011;5183;51.190;6.820;2023-03-12T12:17:55;24.33;;;22.03;;
10275;SDS011;5183;51.190;6.820;2023-03-12T12:20:28;21.63;;;19.43;;
10275;SDS011;5183;51.190;6.820;2023-03-12T12:23:09;24.17;;;21.60;;
10275;SDS011;5183;51.190;6.820;2023-03-12T12:31:41;24.63;;;22.20;;
10275;SDS011;5183;51.190;6.820;2023-03-12T12:37:38;24.15;;;21.65;;
10275;SDS011;5183;51.190;6.820;2023-03-12T12:40:14;26.65;;;21.77;;
10275;SDS011;5183;51.190;6.820;2023-03-12T12:42:48;23.75;;;19.45;;
10275;SDS011;5183;51.190;6.820;2023-03-12T12:45:18;24.83;;;18.40;;
10275;SDS011;5183;51.190;6.820;2023-03-12T12:47:48;30.93;;;16.73;;
10275;SDS011;5183;51.190;6.820;2023-03-12T12:50:21;29.92;;;17.33;;
10275;SDS011;5183;51.190;6.820;2023-03-12T12:52:53;28.13;;;16.38;;
10275;SDS011;5183;51.190;6.820;2023-03-12T12:55:26;31.77;;;14.75;;
10275;SDS011;5183;51.190;6.820;2023-03-12T12:57:56;26.93;;;11.80;;
10275;SDS011;5183;51.190;6.820;2023-03-12T13:03:16;29.77;;;10.77;;
10275;SDS011;5183;51.190;6.820;2023-03-12T13:05:51;29.67;;;11.30;;
10275;SDS011;5183;51.190;6.820;2023-03-12T13:08:34;29.00;;;9.70;;
10275;SDS011;5183;51.190;6.820;2023-03-12T13:11:23;26.33;;;9.83;;
10275;SDS011;5183;51.190;6.820;2023-03-12T13:14:11;31.20;;;10.27;;
10275;SDS011;5183;51.190;6.820;2023-03-12T13:16:47;30.17;;;10.32;;
10275;SDS011;5183;51.190;6.820;2023-03-12T13:19:25;28.17;;;9.80;;
10275;SDS011;5183;51.190;6.820;2023-03-12T13:21:57;28.23;;;8.73;;
10275;SDS011;5183;51.190;6.820;2023-03-12T13:24:32;26.73;;;8.23;;
10275;SDS011;5183;51.190;6.820;2023-03-12T13:27:08;27.63;;;8.88;;
10275;SDS011;5183;51.190;6.820;2023-03-12T13:29:41;28.73;;;9.17;;
10275;SDS011;5183;51.190;6.820;2023-03-12T13:32:09;24.60;;;8.33;;
10275;SDS011;5183;51.190;6.820;2023-03-12T13:35:18;27.45;;;8.48;;
10275;SDS011;5183;51.190;6.820;2023-03-12T13:37:59;25.00;;;8.57;;
10275;SDS011;5183;51.190;6.820;2023-03-12T13:46:20;23.47;;;6.90;;
10275;SDS011;5183;51.190;6.820;2023-03-12T13:49:05;24.97;;;6.60;;
10275;SDS011;5183;51.190;6.820;2023-03-12T13:51:43;21.63;;;5.90;;
10275;SDS011;5183;51.190;6.820;2023-03-12T13:54:22;24.30;;;6.67;;
10275;SDS011;5183;51.190;6.820;2023-03-12T13:56:55;24.87;;;6.23;;
10275;SDS011;5183;51.190;6.820;2023-03-12T13:59:23;27.57;;;6.57;;
10275;SDS011;5183;51.190;6.820;2023-03-12T14:01:53;24.40;;;6.30;;
10275;SDS011;5183;51.190;6.820;2023-03-12T14:04:23;20.50;;;6.20;;
10275;SDS011;5183;51.190;6.820;2023-03-12T14:07:07;27.23;;;7.27;;
10275;SDS011;5183;51.190;6.820;2023-03-12T14:09:50;27.13;;;6.03;;
10275;SDS011;5183;51.190;6.820;2023-03-12T14:12:29;21.07;;;6.20;;
10275;SDS011;5183;51.190;6.820;2023-03-12T14:15:06;21.63;;;6.17;;
10275;SDS011;5183;51.190;6.820;2023-03-12T14:20:10;21.53;;;5.97;;
10275;SDS011;5183;51.190;6.820;2023-03-12T14:22:43;21.67;;;5.80;;
10275;SDS011;5183;51.190;6.820;2023-03-12T14:25:22;19.97;;;5.90;;
10275;SDS011;5183;51.190;6.820;2023-03-12T14:27:57;20.77;;;5.80;;
10275;SDS011;5183;51.190;6.820;2023-03-12T14:30:27;19.17;;;5.87;;
10275;SDS011;5183;51.190;6.820;2023-03-12T14:33:04;20.93;;;5.27;;
10275;SDS011;5183;51.190;6.820;2023-03-12T14:35:33;20.13;;;6.23;;
10275;SDS011;5183;51.190;6.820;2023-03-12T14:38:10;25.40;;;6.50;;
10275;SDS011;5183;51.190;6.820;2023-03-12T14:40:42;21.47;;;6.23;;
10275;SDS011;5183;51.190;6.820;2023-03-12T14:43:20;18.97;;;5.60;;
10275;SDS011;5183;51.190;6.820;2023-03-12T14:45:49;21.20;;;5.13;;
10275;SDS011;5183;51.190;6.820;2023-03-12T14:48:19;23.47;;;6.43;;
10275;SDS011;5183;51.190;6.820;2023-03-12T14:50:47;18.80;;;5.20;;
10275;SDS011;5183;51.190;6.820;2023-03-12T14:53:24;24.00;;;5.90;;
10275;SDS011;5183;51.190;6.820;2023-03-12T14:56:00;20.73;;;5.77;;
10275;SDS011;5183;51.190;6.820;2023-03-12T14:58:29;25.10;;;6.57;;
10275;SDS011;5183;51.190;6.820;2023-03-12T15:00:57;24.80;;;6.20;;
10275;SDS011;5183;51.190;6.820;2023-03-12T15:03:25;22.80;;;6.30;;
10275;SDS011;5183;51.190;6.820;2023-03-12T15:05:54;20.67;;;6.65;;
10275;SDS011;5183;51.190;6.820;2023-03-12T15:08:23;25.33;;;6.23;;
10275;SDS011;5183;51.190;6.820;2023-03-12T15:10:52;24.67;;;6.13;;
10275;SDS011;5183;51.190;6.820;2023-03-12T15:13:20;22.27;;;5.60;;
10275;SDS011;5183;51.190;6.820;2023-03-12T15:15:49;25.07;;;6.43;;
10275;SDS011;5183;51.190;6.820;2023-03-12T15:18:20;28.90;;;6.00;;
10275;SDS011;5183;51.190;6.820;2023-03-12T15:20:49;25.33;;;6.53;;
10275;SDS011;5183;51.190;6.820;2023-03-12T15:23:18;22.00;;;6.53;;
10275;SDS011;5183;51.190;6.820;2023-03-12T15:25:48;24.60;;;5.70;;
10275;SDS011;5183;51.190;6.820;2023-03-12T15:28:35;25.87;;;6.37;;
10275;SDS011;5183;51.190;6.820;2023-03-12T15:31:03;29.20;;;6.33;;
10275;SDS011;5183;51.190;6.820;2023-03-12T15:33:32;23.70;;;6.87;;